createdAt,value
2023-12-28T00:00:22.750Z,1.00
2023-12-28T00:02:51.093Z,1.00
2023-12-28T00:05:20.780Z,1.80
2023-12-28T00:07:49.048Z,1.00
2023-12-28T00:10:17.475Z,1.40
2023-12-28T00:12:45.771Z,1.00
2023-12-28T00:15:14.135Z,1.00
2023-12-28T00:17:42.594Z,0.60
2023-12-28T00:20:11.877Z,3.00
2023-12-28T00:22:41.526Z,1.00
2023-12-28T00:25:10.340Z,1.00
2023-12-28T00:27:39.260Z,2.20
2023-12-28T00:30:08.723Z,1.80
2023-12-28T00:32:38.274Z,2.20
2023-12-28T00:35:06.932Z,1.00
2023-12-28T00:37:35.157Z,1.00
2023-12-28T00:40:05.295Z,2.20
2023-12-28T00:42:33.599Z,1.40
2023-12-28T00:45:01.928Z,3.00
2023-12-28T00:47:30.210Z,1.00
2023-12-28T00:49:58.524Z,0.00
2023-12-28T00:52:26.770Z,1.00
2023-12-28T00:54:55.151Z,1.00
2023-12-28T00:57:24.826Z,1.00
2023-12-28T00:59:53.111Z,3.00
2023-12-28T01:02:21.449Z,3.00
2023-12-28T01:04:49.716Z,2.60
2023-12-28T01:07:18.046Z,1.40
2023-12-28T01:09:46.315Z,0.80
2023-12-28T01:12:14.648Z,3.00
2023-12-28T01:14:44.343Z,2.20
2023-12-28T01:17:12.568Z,1.40
2023-12-28T01:19:40.848Z,2.20
2023-12-28T01:22:09.159Z,2.20
2023-12-28T01:24:37.432Z,2.60
2023-12-28T01:27:05.961Z,1.00
2023-12-28T01:29:35.611Z,2.60
2023-12-28T01:32:06.604Z,3.00
2023-12-28T01:34:34.906Z,1.00
2023-12-28T01:37:03.179Z,2.60
2023-12-28T01:39:31.421Z,0.60
2023-12-28T01:41:59.672Z,0.60
2023-12-28T01:44:27.968Z,2.20
2023-12-28T01:46:56.181Z,1.00
2023-12-28T01:49:26.022Z,1.00
2023-12-28T01:51:54.319Z,1.00
2023-12-28T01:54:22.604Z,3.00
2023-12-28T01:56:50.879Z,1.40
2023-12-28T01:59:19.784Z,1.00
2023-12-28T02:01:48.045Z,1.00
2023-12-28T02:04:16.356Z,2.60
2023-12-28T02:06:46.029Z,1.00
2023-12-28T02:09:14.369Z,1.00
2023-12-28T02:11:42.713Z,1.00
2023-12-28T02:14:10.856Z,0.80
2023-12-28T02:16:40.973Z,1.00
2023-12-28T02:19:15.631Z,2.20
2023-12-28T02:21:45.163Z,0.00
2023-12-28T02:24:13.366Z,0.00
2023-12-28T02:26:42.958Z,1.00
2023-12-28T02:29:11.128Z,1.00
2023-12-28T02:31:42.138Z,0.00
2023-12-28T02:34:13.276Z,0.00
2023-12-28T02:36:41.468Z,1.00
2023-12-28T02:39:09.660Z,1.00
2023-12-28T02:41:37.719Z,0.40
2023-12-28T02:44:07.228Z,1.00
2023-12-28T02:46:35.353Z,0.20
2023-12-28T02:49:03.543Z,1.00
2023-12-28T02:51:31.773Z,1.00
2023-12-28T02:53:59.932Z,0.00
2023-12-28T02:56:28.085Z,1.00
2023-12-28T02:58:56.171Z,0.00
2023-12-28T03:01:25.750Z,0.40
2023-12-28T03:03:53.904Z,1.00
2023-12-28T03:06:22.029Z,0.80
2023-12-28T03:08:50.167Z,1.00
2023-12-28T03:11:18.563Z,1.00
2023-12-28T03:13:46.653Z,0.00
2023-12-28T03:16:15.806Z,0.00
2023-12-28T03:18:45.452Z,0.00
2023-12-28T03:21:13.682Z,0.20
2023-12-28T03:23:41.925Z,0.00
2023-12-28T03:26:09.027Z,1.00
2023-12-28T03:28:37.136Z,1.00
2023-12-28T03:31:05.402Z,1.00
2023-12-28T03:33:33.636Z,1.00
2023-12-28T03:36:03.122Z,0.80
2023-12-28T03:38:31.262Z,1.00
2023-12-28T03:40:59.444Z,0.00
2023-12-28T03:43:27.494Z,0.80
2023-12-28T03:45:55.631Z,1.00
2023-12-28T03:48:23.916Z,0.40
2023-12-28T03:50:52.057Z,0.00
2023-12-28T03:53:21.500Z,0.80
2023-12-28T03:55:49.599Z,0.80
2023-12-28T03:58:17.667Z,0.00
2023-12-28T04:00:45.863Z,0.40
2023-12-28T04:03:14.125Z,0.00
2023-12-28T04:05:42.360Z,0.80
2023-12-28T04:08:10.452Z,0.80
2023-12-28T04:10:40.052Z,1.00
2023-12-28T04:13:08.145Z,1.00
2023-12-28T04:15:36.270Z,0.00
2023-12-28T04:18:05.033Z,2.20
2023-12-28T04:20:33.360Z,1.00
2023-12-28T04:23:01.515Z,1.40
2023-12-28T04:25:29.686Z,1.00
2023-12-28T04:27:59.614Z,0.00
2023-12-28T04:30:28.776Z,0.80
2023-12-28T04:32:57.025Z,0.80
2023-12-28T04:35:25.175Z,1.00
2023-12-28T04:37:53.245Z,1.00
2023-12-28T04:40:21.331Z,1.00
2023-12-28T04:42:49.609Z,0.80
2023-12-28T04:45:19.454Z,1.00
2023-12-28T04:47:47.628Z,1.00
2023-12-28T04:50:15.776Z,1.00
2023-12-28T04:52:43.877Z,1.00
2023-12-28T04:55:12.005Z,1.00
2023-12-28T04:57:40.192Z,1.00
2023-12-28T05:00:09.708Z,1.00
2023-12-28T05:02:39.245Z,1.40
2023-12-28T05:05:10.222Z,1.00
2023-12-28T05:07:38.406Z,1.00
2023-12-28T05:10:07.307Z,3.00
2023-12-28T05:12:43.611Z,1.00
2023-12-28T05:15:12.779Z,1.00
2023-12-28T05:17:42.686Z,1.40
2023-12-28T05:20:11.332Z,1.00
2023-12-28T05:22:39.442Z,1.40
2023-12-28T05:25:08.530Z,1.00
2023-12-28T05:27:36.730Z,1.40
2023-12-28T05:30:05.798Z,1.00
2023-12-28T05:32:33.939Z,1.00
2023-12-28T05:35:04.547Z,1.00
2023-12-28T05:37:32.675Z,1.00
2023-12-28T05:40:00.995Z,3.00
2023-12-28T05:42:29.215Z,1.00
2023-12-28T05:44:57.320Z,1.00
2023-12-28T05:47:25.636Z,1.00
2023-12-28T05:49:54.079Z,0.60
2023-12-28T05:52:23.658Z,1.00
2023-12-28T05:54:51.798Z,1.00
2023-12-28T05:57:19.941Z,1.00
2023-12-28T05:59:48.089Z,3.00
2023-12-28T06:02:16.468Z,3.00
2023-12-28T06:04:44.718Z,3.00
2023-12-28T06:07:12.831Z,3.00
2023-12-28T06:09:42.417Z,1.00
2023-12-28T06:12:11.049Z,2.60
2023-12-28T06:14:39.186Z,3.00
2023-12-28T06:17:07.804Z,0.80
2023-12-28T06:19:36.086Z,3.00
2023-12-28T06:22:04.313Z,1.00
2023-12-28T06:24:32.483Z,1.40
2023-12-28T06:27:02.283Z,0.00
2023-12-28T06:29:30.345Z,1.00
2023-12-28T06:31:58.420Z,2.60
2023-12-28T06:34:26.862Z,1.00
2023-12-28T06:36:55.240Z,2.20
2023-12-28T06:39:23.457Z,0.00
2023-12-28T06:41:51.762Z,2.60
2023-12-28T06:44:21.315Z,2.20
2023-12-28T06:46:49.561Z,2.20
2023-12-28T06:49:17.775Z,1.00
2023-12-28T06:51:47.458Z,2.60
2023-12-28T06:54:16.372Z,3.00
2023-12-28T06:56:44.591Z,1.40
2023-12-28T06:59:13.414Z,1.40
2023-12-28T07:01:42.996Z,1.00
2023-12-28T07:04:11.164Z,1.00
2023-12-28T07:06:39.269Z,3.00
2023-12-28T07:09:07.477Z,2.20
2023-12-28T07:11:35.597Z,3.00
2023-12-28T07:14:03.654Z,1.00
2023-12-28T07:16:31.939Z,2.60
2023-12-28T07:19:01.642Z,0.00
2023-12-28T07:21:29.833Z,1.00
2023-12-28T07:23:57.946Z,1.00
2023-12-28T07:26:26.043Z,1.00
2023-12-28T07:28:56.071Z,0.60
2023-12-28T07:31:27.419Z,1.40
2023-12-28T07:33:56.364Z,1.00
2023-12-28T07:36:26.017Z,1.80
2023-12-28T07:38:54.141Z,0.80
2023-12-28T07:41:22.246Z,1.00
2023-12-28T07:43:50.402Z,3.00
2023-12-28T07:46:18.479Z,2.60
2023-12-28T07:48:46.776Z,2.60
2023-12-28T07:51:15.749Z,3.00
2023-12-28T07:53:45.288Z,3.00
2023-12-28T07:56:13.442Z,2.20
2023-12-28T07:58:41.704Z,1.00
2023-12-28T08:01:12.684Z,2.60
2023-12-28T08:03:41.054Z,1.00
2023-12-28T08:06:09.521Z,2.60
2023-12-28T08:08:38.671Z,2.20
2023-12-28T08:11:08.385Z,3.00
2023-12-28T08:13:36.442Z,3.00
2023-12-28T08:16:04.589Z,1.00
2023-12-28T08:18:32.973Z,2.20
2023-12-28T08:21:01.352Z,1.80
2023-12-28T08:23:29.538Z,1.00
2023-12-28T08:25:57.645Z,3.00
2023-12-28T08:28:27.167Z,2.20
2023-12-28T08:30:56.025Z,1.40
2023-12-28T08:33:24.317Z,3.00
2023-12-28T08:35:53.372Z,3.00
2023-12-28T08:38:21.532Z,1.00
2023-12-28T08:40:49.624Z,1.80
2023-12-28T08:43:17.701Z,2.60
2023-12-28T08:45:47.272Z,1.40
2023-12-28T08:48:15.553Z,3.00
2023-12-28T08:50:43.909Z,1.00
2023-12-28T08:53:12.198Z,3.00
2023-12-28T08:55:40.278Z,1.00
2023-12-28T08:58:08.808Z,2.60
2023-12-28T09:00:39.663Z,1.40
2023-12-28T09:03:12.510Z,3.00
2023-12-28T09:05:40.898Z,1.00
2023-12-28T09:08:09.255Z,1.00
2023-12-28T09:10:37.342Z,3.00
2023-12-28T09:13:06.615Z,1.00
2023-12-28T09:15:34.723Z,1.00
2023-12-28T09:18:03.348Z,1.00
2023-12-28T09:20:33.389Z,3.00
2023-12-28T09:23:01.542Z,1.00
2023-12-28T09:25:29.651Z,1.00
2023-12-28T09:27:58.051Z,1.00
2023-12-28T09:30:26.359Z,0.80
2023-12-28T09:32:54.706Z,1.00
2023-12-28T09:35:22.747Z,1.00
2023-12-28T09:37:52.341Z,1.00
2023-12-28T09:40:20.984Z,2.80
2023-12-28T09:43:04.314Z,2.40
2023-12-28T09:45:32.594Z,2.00
2023-12-28T09:48:07.648Z,8.40
2023-12-28T09:50:39.663Z,18.60
2023-12-28T09:53:09.528Z,20.40
2023-12-28T09:55:38.145Z,19.60
2023-12-28T09:58:07.788Z,21.80
2023-12-28T10:00:36.025Z,17.80
2023-12-28T10:03:04.498Z,13.80
2023-12-28T10:05:32.641Z,15.80
2023-12-28T10:08:00.969Z,6.60
2023-12-28T10:10:31.339Z,5.60
2023-12-28T10:13:00.070Z,7.00
2023-12-28T10:15:28.857Z,3.40
2023-12-28T10:17:57.869Z,3.60
2023-12-28T10:20:28.836Z,2.20
2023-12-28T10:22:57.476Z,1.00
2023-12-28T10:25:25.898Z,0.00
2023-12-28T10:27:55.665Z,2.60
2023-12-28T10:30:23.972Z,1.40
2023-12-28T10:32:53.385Z,1.00
2023-12-28T10:35:22.025Z,0.00
2023-12-28T10:37:50.525Z,0.20
2023-12-28T10:40:21.302Z,1.00
2023-12-28T10:42:56.417Z,0.00
2023-12-28T10:45:27.481Z,1.00
2023-12-28T10:47:59.498Z,0.60
2023-12-28T10:50:28.369Z,2.60
2023-12-28T10:52:59.169Z,0.40
2023-12-28T10:55:30.098Z,3.00
2023-12-28T10:58:01.326Z,1.00
2023-12-28T11:00:33.260Z,0.20
2023-12-28T11:03:04.876Z,0.00
2023-12-28T11:05:34.178Z,0.60
2023-12-28T11:08:02.266Z,0.00
2023-12-28T11:10:34.501Z,1.40
2023-12-28T11:13:02.836Z,0.00
2023-12-28T11:15:32.551Z,0.60
2023-12-28T11:18:00.826Z,0.00
2023-12-28T11:20:29.481Z,0.00
2023-12-28T11:22:58.371Z,0.20
2023-12-28T11:25:26.985Z,1.00
2023-12-28T11:27:55.201Z,0.00
2023-12-28T11:30:23.354Z,0.20
2023-12-28T11:32:52.896Z,0.00
2023-12-28T11:35:21.206Z,0.00
2023-12-28T11:37:51.066Z,1.00
2023-12-28T11:40:20.411Z,0.00
2023-12-28T11:42:55.296Z,0.00
2023-12-28T11:45:26.939Z,0.00
2023-12-28T11:48:03.588Z,0.60
2023-12-28T11:50:32.069Z,0.00
2023-12-28T11:53:01.012Z,0.00
2023-12-28T11:55:29.720Z,0.00
2023-12-28T11:57:58.001Z,0.00
2023-12-28T12:00:27.517Z,0.00
2023-12-28T12:02:57.309Z,0.00
2023-12-28T12:05:27.565Z,0.00
2023-12-28T12:07:55.824Z,0.00
2023-12-28T12:10:24.314Z,0.00
2023-12-28T12:12:54.471Z,0.00
2023-12-28T12:15:22.778Z,0.00
2023-12-28T12:17:50.923Z,0.00
2023-12-28T12:20:19.235Z,1.00
2023-12-28T12:22:48.797Z,0.00
2023-12-28T12:25:17.424Z,1.00
2023-12-28T12:27:45.561Z,0.00
2023-12-28T12:30:14.349Z,1.00
2023-12-28T12:32:44.501Z,1.00
2023-12-28T12:35:13.078Z,0.00
2023-12-28T12:37:41.227Z,0.80
2023-12-28T12:40:14.603Z,0.00
2023-12-28T12:42:44.588Z,0.60
2023-12-28T12:45:12.809Z,1.00
2023-12-28T12:47:41.612Z,0.80
2023-12-28T12:50:10.285Z,1.00
2023-12-28T12:52:38.382Z,0.00
2023-12-28T12:55:07.665Z,1.00
2023-12-28T12:57:37.248Z,0.00
2023-12-28T13:00:09.419Z,1.00
2023-12-28T13:02:38.098Z,0.60
2023-12-28T13:05:07.159Z,0.40
2023-12-28T13:07:40.423Z,0.00
2023-12-28T13:10:13.960Z,1.00
2023-12-28T13:12:44.040Z,0.00
2023-12-28T13:15:12.426Z,0.00
2023-12-28T13:17:40.581Z,1.00
2023-12-28T13:20:09.688Z,1.00
2023-12-28T13:22:37.815Z,0.00
2023-12-28T13:25:06.980Z,1.00
2023-12-28T13:27:35.234Z,0.00
2023-12-28T13:30:05.721Z,0.20
2023-12-28T13:32:33.948Z,1.00
2023-12-28T13:35:03.803Z,1.00
2023-12-28T13:37:32.276Z,1.00
2023-12-28T13:40:00.738Z,0.00
2023-12-28T13:42:29.035Z,0.80
2023-12-28T13:44:57.222Z,1.00
2023-12-28T13:47:26.824Z,0.00
2023-12-28T13:50:01.086Z,0.00
2023-12-28T13:52:34.267Z,0.00
2023-12-28T13:55:02.983Z,0.00
2023-12-28T13:57:31.201Z,0.60
2023-12-28T14:00:01.556Z,1.00
2023-12-28T14:02:31.069Z,0.00
2023-12-28T14:04:59.280Z,0.00
2023-12-28T14:07:27.942Z,1.00
2023-12-28T14:09:56.138Z,0.00
2023-12-28T14:12:24.306Z,0.00
2023-12-28T14:14:52.493Z,0.80
2023-12-28T14:17:22.255Z,0.00
2023-12-28T14:19:52.517Z,0.80
2023-12-28T14:22:21.128Z,1.00
2023-12-28T14:24:50.049Z,1.00
2023-12-28T14:27:18.681Z,0.00
2023-12-28T14:29:47.129Z,0.80
2023-12-28T14:32:15.812Z,1.00
2023-12-28T14:34:44.340Z,0.00
2023-12-28T14:37:13.783Z,0.00
2023-12-28T14:39:41.856Z,0.00
2023-12-28T14:42:10.762Z,0.00
2023-12-28T14:44:38.759Z,0.00
2023-12-28T14:47:07.487Z,0.00
2023-12-28T14:49:35.562Z,1.00
2023-12-28T14:52:03.672Z,0.00
2023-12-28T14:54:33.514Z,1.00
2023-12-28T14:57:01.620Z,0.00
2023-12-28T14:59:29.599Z,1.00
2023-12-28T15:01:57.886Z,1.00
2023-12-28T15:04:27.192Z,0.00
2023-12-28T15:06:55.712Z,0.00
2023-12-28T15:09:23.830Z,0.80
2023-12-28T15:11:54.556Z,0.80
2023-12-28T15:14:23.211Z,3.60
2023-12-28T15:16:51.648Z,1.40
2023-12-28T15:19:20.289Z,2.20
2023-12-28T15:21:48.842Z,13.20
2023-12-28T15:24:17.694Z,7.60
2023-12-28T15:26:46.281Z,4.00
2023-12-28T15:29:16.875Z,1.00
2023-12-28T15:31:45.017Z,1.80
2023-12-28T15:34:13.256Z,2.60
2023-12-28T15:36:41.931Z,11.40
2023-12-28T15:39:09.980Z,9.00
2023-12-28T15:41:38.014Z,3.00
2023-12-28T15:44:06.386Z,3.60
2023-12-28T15:46:35.960Z,3.60
2023-12-28T15:49:04.151Z,1.00
2023-12-28T15:51:32.268Z,2.60
2023-12-28T15:54:00.264Z,3.00
2023-12-28T15:56:28.604Z,2.20
2023-12-28T15:58:56.662Z,2.80
2023-12-28T16:01:24.749Z,3.00
2023-12-28T16:03:54.294Z,1.40
2023-12-28T16:06:22.393Z,4.00
2023-12-28T16:08:50.676Z,5.40
2023-12-28T16:11:18.961Z,3.60
2023-12-28T16:13:47.625Z,3.80
2023-12-28T16:16:16.260Z,1.40
2023-12-28T16:18:45.043Z,2.40
2023-12-28T16:21:16.652Z,2.00
2023-12-28T16:23:45.299Z,4.00
2023-12-28T16:26:15.078Z,3.00
2023-12-28T16:28:43.179Z,4.00
2023-12-28T16:31:11.269Z,2.60
2023-12-28T16:33:39.532Z,1.00
2023-12-28T16:36:08.319Z,3.00
2023-12-28T16:38:37.686Z,1.00
2023-12-28T16:41:06.158Z,1.40
2023-12-28T16:43:34.421Z,4.00
2023-12-28T16:46:03.337Z,3.40
2023-12-28T16:48:31.485Z,3.00
2023-12-28T16:51:03.246Z,3.00
2023-12-28T16:53:32.133Z,3.00
2023-12-28T16:56:01.783Z,3.00
2023-12-28T16:58:29.827Z,4.80
2023-12-28T17:00:57.962Z,3.20
2023-12-28T17:03:26.212Z,9.00
2023-12-28T17:05:57.392Z,10.40
2023-12-28T17:08:25.659Z,7.20
2023-12-28T17:10:54.156Z,8.20
2023-12-28T17:13:24.698Z,4.00
2023-12-28T17:15:54.426Z,3.80
2023-12-28T17:18:25.468Z,3.00
2023-12-28T17:20:54.642Z,14.40
2023-12-28T17:23:27.106Z,10.00
2023-12-28T17:26:02.655Z,8.40
2023-12-28T17:28:37.032Z,3.60
2023-12-28T17:31:05.345Z,3.80
2023-12-28T17:33:34.604Z,10.00
2023-12-28T17:36:03.158Z,14.00
2023-12-28T17:38:31.863Z,3.20
2023-12-28T17:41:00.766Z,2.60
2023-12-28T17:43:35.069Z,14.80
2023-12-28T17:46:06.022Z,3.60
2023-12-28T17:48:34.957Z,3.80
2023-12-28T17:51:03.106Z,10.80
2023-12-28T17:53:31.706Z,14.20
2023-12-28T17:55:59.696Z,14.00
2023-12-28T17:58:27.717Z,10.60
2023-12-28T18:00:57.189Z,11.20
2023-12-28T18:03:26.184Z,3.20
2023-12-28T18:05:54.406Z,11.20
2023-12-28T18:08:25.370Z,4.00
2023-12-28T18:10:56.548Z,10.20
2023-12-28T18:13:29.049Z,4.00
2023-12-28T18:15:58.964Z,3.20
2023-12-28T18:18:27.145Z,3.00
2023-12-28T18:20:55.278Z,8.40
2023-12-28T18:23:23.384Z,5.60
2023-12-28T18:25:51.817Z,8.20
2023-12-28T18:28:19.930Z,5.60
2023-12-28T18:30:48.293Z,3.60
2023-12-28T18:33:21.673Z,1.00
2023-12-28T18:35:50.565Z,3.40
2023-12-28T18:38:18.563Z,4.00
2023-12-28T18:40:48.021Z,3.40
2023-12-28T18:43:16.167Z,4.00
2023-12-28T18:45:46.788Z,3.00
2023-12-28T18:48:15.048Z,1.80
2023-12-28T18:50:44.709Z,3.40
2023-12-28T18:53:12.710Z,3.00
2023-12-28T18:55:43.443Z,2.60
2023-12-28T18:58:11.470Z,4.40
2023-12-28T19:00:39.793Z,3.60
2023-12-28T19:03:07.863Z,1.40
2023-12-28T19:05:36.068Z,1.00
2023-12-28T19:08:07.368Z,1.00
2023-12-28T19:10:35.472Z,1.00
2023-12-28T19:13:03.610Z,1.00
2023-12-28T19:15:31.685Z,1.80
2023-12-28T19:18:00.292Z,3.00
2023-12-28T19:20:28.815Z,0.00
2023-12-28T19:22:56.855Z,1.00
2023-12-28T19:25:26.244Z,0.40
2023-12-28T19:27:54.292Z,3.00
2023-12-28T19:30:22.376Z,3.00
2023-12-28T19:32:50.529Z,1.00
2023-12-28T19:35:19.791Z,1.00
2023-12-28T19:37:47.822Z,1.80
2023-12-28T19:40:17.053Z,2.60
2023-12-28T19:42:48.471Z,2.60
2023-12-28T19:45:16.680Z,3.00
2023-12-28T19:47:44.889Z,0.00
2023-12-28T19:50:15.171Z,3.00
2023-12-28T19:52:43.185Z,3.00
2023-12-28T19:55:11.413Z,1.40
2023-12-28T19:57:39.474Z,2.60
2023-12-28T20:00:12.322Z,1.00
2023-12-28T20:02:40.365Z,1.00
2023-12-28T20:05:09.305Z,2.60
2023-12-28T20:07:37.301Z,1.00
2023-12-28T20:10:05.693Z,1.80
2023-12-28T20:12:34.030Z,3.00
2023-12-28T20:15:01.976Z,1.00
2023-12-28T20:17:31.535Z,3.00
2023-12-28T20:20:01.612Z,0.40
2023-12-28T20:22:29.880Z,1.00
2023-12-28T20:24:58.047Z,3.00
2023-12-28T20:27:26.421Z,3.00
2023-12-28T20:29:54.669Z,1.80
2023-12-28T20:32:22.741Z,3.00
2023-12-28T20:34:52.302Z,3.00
2023-12-28T20:37:20.706Z,1.00
2023-12-28T20:39:48.820Z,1.40
2023-12-28T20:42:16.879Z,2.20
2023-12-28T20:44:44.901Z,1.00
2023-12-28T20:47:13.153Z,1.00
2023-12-28T20:49:46.722Z,1.00
2023-12-28T20:52:17.004Z,1.00
2023-12-28T20:54:45.139Z,1.40
2023-12-28T20:57:13.214Z,1.40
2023-12-28T20:59:44.954Z,1.80
2023-12-28T21:02:13.780Z,1.00
2023-12-28T21:04:42.038Z,2.60
2023-12-28T21:07:10.319Z,1.00
2023-12-28T21:09:42.007Z,1.00
2023-12-28T21:12:10.996Z,1.80
2023-12-28T21:14:40.875Z,2.20
2023-12-28T21:17:09.002Z,0.00
2023-12-28T21:19:46.933Z,0.80
2023-12-28T21:22:16.687Z,1.00
2023-12-28T21:24:46.338Z,1.40
2023-12-28T21:27:14.441Z,1.00
2023-12-28T21:29:42.447Z,0.00
2023-12-28T21:32:10.467Z,3.00
2023-12-28T21:34:39.653Z,1.00
2023-12-28T21:37:07.904Z,1.00
2023-12-28T21:39:36.095Z,1.00
2023-12-28T21:42:05.705Z,0.40
2023-12-28T21:44:33.785Z,3.00
2023-12-28T21:47:01.805Z,1.00
2023-12-28T21:49:29.896Z,0.00
2023-12-28T21:51:58.977Z,0.00
2023-12-28T21:54:27.199Z,0.00
2023-12-28T21:56:55.224Z,1.00
2023-12-28T21:59:24.652Z,1.40
2023-12-28T22:01:54.198Z,1.00
2023-12-28T22:04:22.680Z,1.00
2023-12-28T22:06:51.346Z,1.00
2023-12-28T22:09:19.455Z,1.00
2023-12-28T22:11:47.652Z,0.00
2023-12-28T22:14:15.751Z,1.40
2023-12-28T22:16:45.202Z,1.00
2023-12-28T22:19:13.267Z,1.00
2023-12-28T22:21:41.386Z,1.40
2023-12-28T22:24:09.486Z,1.00
2023-12-28T22:26:38.299Z,1.00
2023-12-28T22:29:08.878Z,1.00
2023-12-28T22:31:36.986Z,0.60
2023-12-28T22:34:06.896Z,1.00
2023-12-28T22:36:35.614Z,0.80
2023-12-28T22:39:04.187Z,1.00
2023-12-28T22:41:32.220Z,0.40
2023-12-28T22:44:00.242Z,1.00
2023-12-28T22:46:28.667Z,1.00
2023-12-28T22:48:56.742Z,1.00
2023-12-28T22:51:27.103Z,1.00
2023-12-28T22:53:55.724Z,0.60
2023-12-28T22:56:23.767Z,0.60
2023-12-28T22:58:51.770Z,1.40
2023-12-28T23:01:22.208Z,1.00
2023-12-28T23:03:50.297Z,1.00
2023-12-28T23:06:18.378Z,0.00
2023-12-28T23:08:47.790Z,1.00
2023-12-28T23:11:15.772Z,0.60
2023-12-28T23:13:43.958Z,1.00
2023-12-28T23:16:12.132Z,0.00
2023-12-28T23:18:40.435Z,0.00
2023-12-28T23:21:08.579Z,0.40
2023-12-28T23:23:36.781Z,0.00
2023-12-28T23:26:06.335Z,1.00
2023-12-28T23:28:34.338Z,0.40
2023-12-28T23:31:02.501Z,1.00
2023-12-28T23:33:30.742Z,1.00
2023-12-28T23:35:58.850Z,0.00
2023-12-28T23:38:27.154Z,0.40
2023-12-28T23:40:55.369Z,0.80
2023-12-28T23:43:25.355Z,0.80
2023-12-28T23:45:54.125Z,0.00
2023-12-28T23:48:22.212Z,0.20
2023-12-28T23:50:50.259Z,0.00
2023-12-28T23:53:18.316Z,0.00
2023-12-28T23:55:46.340Z,0.00
2023-12-28T23:58:14.615Z,0.00
